Date,TemperatureHighF,TemperatureAvgF,TemperatureLowF,DewpointHighF,DewpointAvgF,DewpointLowF,HumidityHigh,HumidityAvg,HumidityLow,PressureMaxIn,PressureMinIn,WindSpeedMaxMPH,WindSpeedAvgMPH,GustSpeedMaxMPH,PrecipitationSumIn
2013-1-1,20,13,8,8,5,2,79,70,55,30.25,30.15,11,1,12,0.00
2013-1-2,28,20,8,17,11,2,78,70,54,30.23,30.09,11,1,11,0.00
2013-1-3,27,24,16,23,19,11,86,81,76,30.26,30.08,16,2,17,0.00
2013-1-4,34,23,12,23,16,8,85,77,60,30.24,30.11,16,2,17,0.00
2013-1-5,37,29,20,32,25,16,92,86,69,30.25,29.92,18,2,19,0.09
2013-1-6,34,28,19,32,23,15,92,82,74,30.33,29.89,18,2,18,0.00
2013-1-7,40,28,16,27,21,13,94,76,56,30.33,30.08,19,2,20,0.01
2013-1-8,42,34,27,31,27,23,92,76,64,30.15,29.99,16,2,17,0.00
2013-1-9,45,37,27,32,28,22,84,70,47,30.49,29.96,27,3,27,0.00
2013-1-10,42,33,22,35,28,19,92,82,61,30.51,29.90,16,1,16,0.38
2013-1-11,52,46,37,49,44,35,96,93,85,29.90,29.64,20,2,20,0.24
2013-1-12,53,41,28,47,35,24,92,79,65,29.97,29.65,24,4,24,0.00
2013-1-13,28,21,13,24,17,7,90,83,75,30.24,29.87,16,2,19,0.00
2013-1-14,25,16,10,12,9,5,82,72,54,30.47,30.24,10,0,14,0.01
2013-1-15,31,21,12,17,13,8,89,72,50,30.46,30.13,6,0,6,0.01
2013-1-16,34,27,16,28,20,12,86,75,57,30.13,29.80,20,2,20,0.00
2013-1-17,33,23,16,29,12,5,84,63,47,30.43,30.06,15,1,15,0.00
2013-1-18,43,31,14,31,23,10,88,73,60,30.45,29.87,29,4,29,0.10
2013-1-19,44,40,22,36,30,11,76,70,44,29.90,29.66,33,4,39,0.01
2013-1-20,22,14,9,11,3,0,67,60,52,30.30,29.89,28,3,28,0.00
2013-1-21,12,6,0,3,-3,-9,76,64,53,30.31,30.15,21,4,22,0.00
2013-1-22,9,3,-5,-2,-7,-13,76,64,55,30.42,30.30,14,2,18,0.00
2013-1-23,18,12,6,13,5,-3,82,71,61,30.39,30.12,16,1,21,0.00
2013-1-24,19,12,2,10,2,-5,80,66,55,30.67,30.39,13,1,16,0.00
2013-1-25,25,20,17,19,13,6,86,74,56,30.42,29.98,19,2,19,0.00
2013-1-26,26,18,9,16,9,4,81,68,49,30.41,30.20,9,0,9,0.02
2013-1-27,35,28,23,33,23,16,93,81,69,30.39,29.91,13,2,14,0.01
2013-1-28,46,40,35,44,38,33,100,91,84,29.96,29.78,14,1,14,0.17
2013-1-29,62,53,37,59,51,36,97,94,89,29.84,29.38,20,2,20,1.18
2013-1-30,42,30,17,41,28,12,99,92,81,29.61,29.19,27,4,27,0.31
2013-1-31,18,12,4,13,6,-1,82,77,71,30.17,29.61,26,4,27,0.00
2013-2-1,11,5,-2,7,-2,-8,83,74,63,30.37,30.17,17,2,17,0.00
2013-2-2,19,12,6,17,7,-1,90,81,71,30.21,30.05,10,1,10,0.00
2013-2-3,20,14,6,13,8,0,92,77,67,30.09,29.97,19,1,19,0.00
2013-2-4,26,18,10,22,14,3,90,85,73,30.06,29.91,11,1,11,0.00
2013-2-5,29,20,6,25,16,1,87,82,74,30.12,29.82,15,1,15,0.00
2013-2-6,36,26,8,29,19,5,92,76,64,30.26,30.11,10,1,10,0.11
2013-2-7,33,32,28,31,30,26,94,90,81,30.13,29.88,9,0,9,0.13
2013-2-8,28,23,21,26,21,18,100,91,89,30.42,29.98,0,0,0,0.00
2013-2-9,34,23,15,29,20,13,99,87,78,30.42,30.11,11,0,11,0.06
2013-2-10,45,35,23,43,33,20,95,92,75,30.11,29.46,23,2,23,0.55
2013-2-11,42,32,27,35,25,20,84,77,73,30.01,29.47,28,6,30,0.00
2013-2-12,27,24,21,21,19,16,88,80,73,30.11,29.92,21,2,21,0.00
2013-2-13,43,31,19,32,26,17,92,81,60,29.92,29.71,7,0,12,0.00
2013-2-14,37,35,28,33,28,21,86,77,63,29.98,29.60,23,3,23,0.00
2013-2-15,28,24,16,24,14,7,84,66,51,30.19,29.98,14,2,18,0.00
2013-2-16,18,13,8,9,4,1,77,67,52,30.23,30.15,14,1,15,0.00
2013-2-17,28,18,5,15,6,-2,76,60,42,30.25,30.02,10,0,10,0.00
2013-2-18,50,38,26,44,31,15,92,74,61,30.02,29.39,22,4,26,0.44
2013-2-19,30,15,9,27,9,0,92,78,66,30.20,29.51,24,5,26,0.00
2013-2-20,22,14,7,12,6,0,83,71,62,30.40,30.20,14,2,17,0.00
2013-2-21,28,23,14,23,19,10,88,83,78,30.42,30.05,21,3,21,0.00
2013-2-22,31,27,24,31,26,22,100,93,84,30.05,29.80,21,3,21,0.00
2013-2-23,29,25,19,25,21,15,93,84,68,29.96,29.88,13,1,15,0.01
2013-2-24,37,25,14,25,19,11,89,77,61,30.16,29.96,7,0,7,0.05
2013-2-25,40,29,16,30,23,14,92,79,55,30.20,30.00,10,1,10,0.00
2013-2-26,34,32,30,30,29,26,95,86,74,30.00,29.55,26,8,26,0.00
2013-2-27,32,32,32,30,30,30,95,95,95,29.67,29.53,12,2,12,0.20
2013-2-28,32,30,24,30,28,23,97,95,94,30.09,29.67,14,3,15,0.14
2013-3-1,25,24,23,23,22,21,94,92,89,30.21,30.07,14,3,14,0.00
2013-3-2,30,22,14,24,18,10,91,85,76,30.22,30.17,11,1,12,0.02
2013-3-3,31,20,10,19,13,6,88,76,56,30.18,30.09,9,0,9,0.00
2013-3-4,32,23,11,26,18,8,91,82,70,30.16,30.05,15,2,15,0.00
2013-3-5,32,29,27,28,27,25,95,90,78,30.05,29.84,15,4,16,0.03
2013-3-6,32,29,26,30,27,24,94,92,91,30.31,30.01,14,2,17,0.08
2013-3-7,37,29,23,29,24,20,92,81,60,30.44,30.30,9,0,9,0.03
2013-3-8,38,29,18,29,24,15,93,80,68,30.50,30.31,6,1,12,0.00
2013-3-9,43,37,30,34,30,25,90,77,64,30.31,29.83,15,1,15,0.06
2013-3-10,46,42,39,45,40,34,97,93,67,29.83,29.60,17,2,21,0.96
2013-3-11,45,37,32,44,36,29,97,95,89,29.75,29.51,12,1,13,0.13
2013-3-12,34,30,25,29,26,21,92,85,62,30.01,29.75,16,2,18,0.08
2013-3-13,32,25,19,22,15,10,89,66,41,30.33,30.00,19,2,19,0.01
2013-3-14,37,28,18,28,20,13,89,73,47,30.33,30.09,7,1,9,0.01
2013-3-15,39,33,30,34,30,27,94,89,75,30.10,29.77,14,1,14,0.13
2013-3-16,32,30,27,30,26,21,94,86,73,30.14,29.76,16,3,16,0.00
2013-3-17,31,27,21,21,18,14,77,70,61,30.24,30.13,16,3,16,0.00
2013-3-19,30,26,22,16,14,11,65,59,53,30.06,29.97,21,5,24,0.00
2013-3-20,22,17,12,12,7,2,77,64,56,30.10,30.03,22,3,22,0.00
2013-3-21,31,20,11,16,10,4,76,64,52,30.08,30.02,13,1,15,0.00
2013-3-22,38,26,15,21,16,10,84,66,47,30.10,30.02,11,0,12,0.00
2013-3-23,38,29,20,27,22,17,90,76,53,30.16,30.05,11,1,11,0.00
2013-3-24,36,32,30,29,26,23,88,78,70,30.06,29.71,21,6,24,0.00
2013-3-25,35,32,29,28,26,23,92,79,70,30.08,29.73,16,4,17,0.00
2013-3-26,42,35,31,28,26,24,79,70,55,30.25,30.08,15,2,15,0.00
2013-3-27,42,36,29,27,24,20,77,63,45,30.32,30.25,10,1,12,0.00
2013-3-28,49,37,27,27,24,21,81,62,41,30.34,30.28,11,0,11,0.00
2013-3-29,52,37,26,30,25,22,85,63,38,30.32,30.24,12,1,12,0.00
2013-3-30,59,44,26,41,32,23,89,65,45,30.25,29.81,16,2,17,0.00
2013-3-31,56,44,34,42,36,24,92,74,50,29.87,29.67,25,3,25,0.00
2013-4-1,38,32,27,24,18,14,76,56,43,30.19,29.87,18,2,18,0.00
2013-4-2,42,32,24,18,16,13,73,52,33,30.33,30.19,17,2,24,0.00
2013-4-3,41,32,22,20,17,13,76,55,35,30.46,30.32,13,1,13,0.00
2013-4-4,58,43,27,35,27,17,73,54,36,30.32,29.95,15,1,15,0.00
2013-4-5,44,37,30,32,28,20,88,68,53,30.24,30.00,13,2,13,0.00
2013-4-6,66,50,34,49,36,27,85,61,39,30.17,29.56,28,4,28,0.14
2013-4-7,56,45,36,49,38,31,87,75,56,29.97,29.56,14,1,16,0.00
2013-4-8,55,45,36,51,41,31,96,86,75,29.99,29.53,17,1,17,0.57
2013-4-9,43,39,37,42,38,36,96,95,93,30.02,29.85,13,2,16,0.22
2013-4-10,39,37,35,37,36,34,95,95,93,30.03,29.83,16,3,16,0.74
2013-4-11,40,38,35,39,37,34,100,95,93,29.92,29.56,22,3,23,0.57
2013-4-12,43,38,35,39,34,30,96,87,75,29.82,29.54,13,2,14,0.00
2013-4-13,42,37,31,31,28,27,87,72,58,29.99,29.81,22,3,22,0.00
2013-4-14,62,42,31,49,36,28,89,78,62,30.02,29.64,18,3,21,0.01
2013-4-15,66,55,42,54,48,39,91,78,59,29.96,29.63,28,3,31,0.29
2013-4-16,56,44,36,39,36,32,92,74,48,30.28,29.93,12,1,12,0.01
2013-4-17,43,41,39,42,37,32,96,85,64,30.32,29.79,18,3,18,1.82
2013-4-18,44,43,41,42,42,40,96,96,96,29.84,29.38,9,0,10,1.34
2013-4-19,44,40,34,42,35,28,96,81,65,29.90,29.42,25,3,26,0.01
2013-4-20,46,39,31,28,24,17,67,56,37,30.43,29.90,17,4,17,0.00
2013-4-21,59,43,37,51,27,22,78,54,36,30.52,30.30,19,4,19,0.05
2013-4-22,65,52,42,41,35,31,66,53,36,30.31,30.02,15,2,18,0.00
2013-4-23,56,46,36,50,41,34,93,83,55,30.02,29.87,11,1,12,0.55
2013-4-24,52,42,35,36,31,26,93,67,42,30.08,29.92,15,2,16,0.08
2013-4-25,52,44,37,36,33,30,89,65,46,30.31,30.01,20,2,20,0.02
2013-4-26,67,53,36,48,39,28,79,60,46,30.32,30.18,23,3,28,0.00
2013-4-27,65,56,45,49,45,41,90,66,44,30.26,29.99,14,1,14,0.00
2013-4-28,66,56,50,54,48,42,92,76,62,29.99,29.80,10,1,10,0.00
2013-4-29,73,62,50,56,52,48,94,73,50,29.88,29.72,17,2,17,0.00
2013-4-30,84,72,62,62,58,54,82,63,40,29.88,29.71,20,2,20,0.00
2013-5-1,84,73,49,61,56,43,81,57,37,30.12,29.88,16,1,16,0.00
2013-5-2,55,46,40,44,40,35,91,80,66,30.23,30.12,11,0,11,0.38
2013-5-3,48,42,38,48,40,35,98,92,88,30.17,29.97,10,0,11,0.16
2013-5-4,69,56,45,52,47,43,93,74,50,30.02,29.96,16,2,16,0.00
2013-5-5,68,57,46,49,45,40,88,66,49,30.03,29.97,15,2,16,0.00
2013-5-6,70,58,48,47,42,39,75,56,35,30.03,29.96,13,1,13,0.00
2013-5-7,76,62,47,50,44,39,79,55,35,30.03,29.96,10,1,10,0.00
2013-5-8,80,63,47,54,47,43,93,60,32,30.01,29.93,13,0,13,0.00
2013-5-9,69,58,46,60,50,44,94,76,57,29.94,29.84,0,0,0,0.26
2013-5-10,46,43,41,44,41,39,95,92,89,29.98,29.78,0,0,0,0.23
2013-5-11,55,48,42,50,38,27,96,73,42,30.01,29.79,6,0,11,0.00
2013-5-12,54,44,37,33,30,27,80,58,37,30.10,30.01,1,0,1,0.00
2013-5-13,61,46,33,39,34,30,92,64,34,30.18,29.98,16,0,16,0.00
2013-5-14,87,68,49,61,51,35,74,56,34,29.98,29.54,14,0,14,0.00
2013-5-15,82,72,57,61,54,49,86,55,34,29.79,29.54,12,1,15,0.00
2013-5-16,80,64,53,57,49,39,88,60,39,29.95,29.79,11,1,11,0.00
2013-5-17,64,57,54,50,46,39,79,67,55,30.05,29.94,0,0,0,0.01
2013-5-18,78,64,50,65,55,45,87,73,60,30.05,29.92,0,0,0,0.00
2013-5-19,85,70,56,69,61,54,92,75,58,29.93,29.72,12,1,16,0.00
2013-5-20,88,78,66,68,63,59,91,63,39,29.73,29.63,18,1,18,0.25
2013-5-21,81,71,63,66,62,58,95,75,52,29.68,29.59,19,1,19,0.04
2013-5-22,71,64,52,66,60,50,96,89,62,29.74,29.58,11,0,13,0.57
2013-5-23,52,48,39,51,43,34,95,85,69,30.31,29.73,1,0,1,0.06
2013-5-24,58,46,35,42,36,32,89,69,48,30.45,30.30,10,1,10,0.00
2013-5-25,58,49,39,44,38,31,88,67,41,30.40,30.29,0,0,1,0.00
2013-5-26,64,52,39,48,43,35,90,71,53,30.31,30.15,11,1,12,0.01
2013-5-27,56,52,51,52,49,42,95,89,72,30.16,29.87,14,2,14,0.01
2013-5-28,76,64,51,70,61,49,97,90,73,29.88,29.63,16,1,17,0.43
2013-5-29,83,71,63,68,64,61,94,81,60,29.90,29.73,11,0,13,0.01
2013-5-30,84,75,64,72,67,60,91,75,63,29.87,29.70,27,1,27,0.20
2013-5-31,78,70,62,68,64,61,96,83,64,29.81,29.67,18,1,18,0.16
2013-6-1,76,69,61,68,63,58,95,83,67,29.69,29.60,17,1,21,0.09
2013-6-2,61,54,43,59,49,40,92,84,69,30.02,29.64,12,1,14,0.00
2013-6-3,69,55,42,51,44,39,96,68,41,30.10,30.01,11,0,11,0.00
2013-6-4,69,58,47,48,45,41,89,64,42,30.16,30.07,12,1,12,0.00
2013-6-5,62,56,52,54,49,45,85,77,59,30.11,29.94,11,1,11,0.07
2013-6-6,61,55,53,54,51,46,94,85,71,29.96,29.88,10,1,11,0.19
2013-6-7,68,59,50,52,47,42,84,66,41,29.95,29.89,13,1,13,0.00
2013-6-8,75,60,48,54,48,43,93,66,36,30.00,29.89,10,0,11,0.00
2013-6-9,79,66,51,64,56,47,87,72,55,30.00,29.78,14,1,14,0.00
2013-6-10,78,66,59,67,62,56,96,86,66,29.83,29.72,9,0,9,0.04
2013-6-11,88,72,60,67,63,58,96,75,50,29.89,29.75,13,0,15,0.00
2013-6-12,77,68,62,66,63,58,96,84,68,29.87,29.57,19,1,22,0.64
2013-6-13,73,64,55,61,56,50,96,76,59,30.04,29.64,19,1,19,0.00
2013-6-14,75,62,52,59,53,49,91,73,51,30.12,30.00,10,1,12,0.00
2013-6-15,78,66,54,69,61,49,94,84,73,30.04,29.79,12,0,12,0.13
2013-6-16,87,76,65,69,63,57,89,67,38,29.87,29.80,14,1,15,0.01
2013-6-17,90,72,56,65,58,52,89,67,35,29.92,29.79,16,1,18,0.07
2013-6-18,69,60,53,57,52,45,92,76,53,30.06,29.91,13,2,15,0.00
2013-6-19,74,62,50,53,47,41,87,61,40,30.14,30.05,13,1,14,0.00
2013-6-20,84,70,53,65,56,42,86,63,44,30.12,30.03,13,1,13,0.00
2013-6-21,79,71,67,69,65,57,95,82,69,30.11,29.83,26,1,26,0.70
2013-6-22,79,71,66,73,68,65,96,89,80,30.11,29.91,16,1,17,0.66
2013-6-23,88,76,67,75,69,64,93,80,62,29.99,29.83,23,0,23,0.21
2013-6-24,85,74,67,72,67,64,93,82,62,30.00,29.78,20,0,20,0.04
2013-6-25,82,71,65,74,68,63,96,89,72,29.93,29.77,18,0,18,0.56
2013-6-26,78,71,66,70,67,65,96,88,75,29.80,29.67,11,0,11,0.47
2013-6-27,90,76,64,74,68,63,97,79,51,29.74,29.63,15,1,15,0.00
2013-6-28,81,73,65,67,63,60,93,73,51,29.65,29.55,16,1,17,0.11
2013-6-29,70,64,61,62,60,56,96,86,66,29.76,29.55,15,1,15,0.01
2013-6-30,75,66,58,62,54,46,88,67,39,29.97,29.76,15,1,15,0.00
2013-7-1,77,67,56,57,53,48,86,63,41,30.06,29.97,15,2,16,0.00
2013-7-2,71,61,56,57,54,50,91,78,55,30.07,30.03,13,1,13,0.00
2013-7-3,69,63,59,63,59,55,94,88,82,30.04,29.99,5,0,6,0.00
2013-7-4,82,72,58,67,62,56,96,75,52,30.07,29.98,10,0,10,0.00
2013-7-5,84,74,63,68,63,56,92,71,43,30.05,29.96,11,0,14,0.00
2013-7-6,84,74,64,70,66,62,94,77,58,30.02,29.92,10,0,10,0.00
2013-7-7,90,79,70,73,70,67,89,74,52,29.96,29.88,11,0,11,0.00
2013-7-8,86,78,71,77,72,69,94,83,72,29.94,29.86,15,0,18,0.46
2013-7-9,83,76,69,78,73,67,96,89,76,29.94,29.80,9,0,10,0.12
2013-7-10,82,76,63,76,67,58,93,74,51,29.96,29.78,16,1,16,0.00
2013-7-11,79,69,59,62,57,52,92,68,46,30.07,29.96,11,1,12,0.00
2013-7-12,82,68,54,62,56,51,92,68,39,30.13,30.05,11,0,11,0.00
2013-7-13,83,72,60,65,61,57,96,72,46,30.13,30.07,11,1,11,0.00
2013-7-14,86,76,65,71,67,62,93,75,56,30.18,30.12,11,1,11,0.00
2013-7-15,89,79,69,77,72,66,92,80,63,30.23,30.17,9,1,10,0.00
2013-7-16,94,83,74,77,75,72,93,77,56,30.25,30.17,11,0,12,0.00
2013-7-17,95,85,75,77,74,72,89,72,53,30.25,30.10,10,0,10,0.00
2013-7-18,96,86,76,77,74,72,89,71,50,30.12,29.87,11,0,11,0.00
2013-7-19,96,86,76,76,73,68,85,67,49,29.87,29.67,15,1,19,0.00
2013-7-20,88,76,67,71,65,61,86,70,44,29.92,29.73,13,1,15,0.00
2013-7-21,85,71,64,71,64,60,95,80,57,29.93,29.79,18,1,18,0.36
2013-7-22,87,76,66,72,68,62,97,79,52,29.85,29.67,16,0,18,0.00
2013-7-23,78,69,58,64,60,54,89,74,51,29.95,29.64,17,1,17,0.01
2013-7-24,72,62,53,57,54,50,91,74,54,30.04,29.95,12,1,12,0.00
2013-7-25,80,68,54,62,57,52,95,71,49,30.08,29.96,11,0,11,0.00
2013-7-26,70,65,61,67,61,59,95,87,69,29.96,29.83,20,1,22,0.61
2013-7-27,62,59,55,59,52,47,95,79,62,29.89,29.83,15,1,15,0.01
2013-7-28,68,60,53,54,51,49,90,74,54,29.99,29.83,16,1,16,0.03
2013-7-29,75,63,56,60,56,53,92,78,58,30.16,29.98,10,0,11,0.00
2013-7-30,75,64,55,64,60,54,96,86,62,30.17,30.06,10,0,11,0.05
2013-7-31,76,67,63,67,64,61,96,90,71,30.06,29.91,11,0,11,0.27
2013-8-1,79,69,60,64,59,55,96,74,47,29.95,29.89,12,0,16,0.01
2013-8-2,82,71,61,69,63,57,95,76,57,29.91,29.81,10,0,11,0.66
2013-8-3,78,68,59,61,57,52,92,69,44,30.08,29.91,12,0,13,0.00
2013-8-4,72,64,57,61,58,54,94,79,64,30.18,30.08,10,1,12,0.00
2013-8-5,74,65,58,64,59,55,94,81,66,30.10,29.85,13,0,14,0.65
2013-8-6,83,72,64,74,68,63,96,87,71,29.86,29.77,12,0,12,0.05
2013-8-7,87,75,64,74,69,62,94,82,56,29.92,29.73,14,1,14,0.00
2013-8-8,76,67,62,64,57,51,95,72,47,30.01,29.91,11,1,11,0.00
2013-8-9,82,70,57,67,61,54,94,74,57,30.00,29.93,12,0,12,0.00
2013-8-10,80,69,60,65,61,55,95,77,46,30.10,30.00,9,0,10,0.00
2013-8-11,77,68,58,67,62,56,96,81,61,30.10,29.99,5,0,6,0.02
2013-8-12,80,72,65,70,67,62,95,86,70,30.00,29.83,9,0,10,0.06
2013-8-13,69,62,54,62,53,48,90,74,51,30.14,29.91,13,1,13,0.00
2013-8-14,70,60,51,54,52,49,94,75,50,30.20,30.12,7,0,10,0.00
2013-8-15,77,65,55,59,55,51,88,71,49,30.14,30.06,10,0,10,0.00
2013-8-16,80,68,57,60,57,54,93,71,44,30.17,30.09,11,0,12,0.00
2013-8-17,80,67,56,65,58,54,96,75,46,30.22,30.14,11,0,11,0.00
2013-8-18,80,68,57,65,59,55,96,75,49,30.19,30.07,11,0,11,0.00
2013-8-19,84,72,59,66,62,57,93,74,52,30.09,29.99,8,0,9,0.00
2013-8-20,86,76,65,69,65,62,93,72,49,30.07,29.98,15,0,15,0.00
2013-8-21,89,79,70,71,68,64,87,70,52,30.02,29.89,14,1,14,0.01
2013-8-22,75,71,63,69,66,61,94,87,79,30.08,29.95,20,0,20,0.14
2013-8-23,81,69,58,64,58,54,95,71,42,30.16,30.07,12,1,12,0.01
2013-8-24,85,70,57,66,61,55,97,74,48,30.23,30.14,12,0,12,0.00
2013-8-25,90,78,68,73,66,56,76,66,53,30.19,30.06,15,0,16,0.00
2013-8-26,91,80,72,76,70,64,84,73,61,30.09,29.93,12,0,13,0.00
2013-8-27,96,84,75,76,73,70,86,71,48,29.93,29.76,20,0,20,0.00
2013-8-28,82,76,68,72,70,66,95,83,70,30.00,29.76,11,1,11,0.00
2013-8-29,88,75,65,73,67,63,96,79,50,30.05,29.94,9,0,10,0.00
2013-8-30,96,79,67,78,71,65,92,77,53,29.94,29.69,44,0,44,0.52
2013-8-31,76,70,65,68,66,64,95,87,73,29.82,29.76,11,2,11,0.01
2013-9-1,84,72,64,73,67,62,96,85,66,29.79,29.67,10,2,14,0.53
2013-9-2,76,67,57,65,60,53,93,80,57,29.96,29.77,12,0,12,0.00
2013-9-3,75,63,53,58,55,50,92,76,53,30.06,29.96,12,0,12,0.00
2013-9-4,80,68,56,65,60,53,93,78,56,30.09,30.01,13,0,13,0.01
2013-9-5,70,64,53,65,55,49,93,72,50,30.24,30.08,14,1,15,0.00
2013-9-6,84,68,52,68,60,49,95,75,57,30.21,29.97,15,0,15,0.00
2013-9-7,86,74,67,69,66,62,87,78,52,29.97,29.84,15,0,16,0.00
2013-9-8,72,69,67,68,66,64,92,88,83,30.01,29.92,15,2,15,0.00
2013-9-9,91,79,67,77,71,65,93,78,62,29.94,29.75,13,0,15,0.00
2013-9-10,95,85,75,72,68,65,71,58,40,29.92,29.79,21,1,21,0.00
2013-9-11,82,76,70,72,68,66,90,76,60,30.01,29.90,9,0,12,0.07
2013-9-12,78,67,58,66,61,54,95,81,57,30.07,29.91,18,1,18,0.01
2013-9-13,64,56,49,54,46,42,86,70,52,30.17,30.06,12,1,12,0.01
2013-9-14,72,58,45,52,47,42,94,70,46,30.17,30.00,10,0,10,0.00
2013-9-15,59,56,54,57,52,44,95,86,61,30.17,29.97,9,0,9,1.00
2013-9-16,62,54,45,56,48,42,95,81,61,30.36,30.16,16,1,16,0.02
2013-9-17,69,58,46,56,51,44,95,80,59,30.33,30.09,10,0,11,0.01
2013-9-18,80,69,59,68,61,53,84,76,62,30.10,29.88,12,0,13,0.00
2013-9-19,81,73,68,73,69,65,95,87,75,29.92,29.72,45,1,45,0.36
2013-9-20,76,68,58,67,61,53,93,80,62,29.78,29.70,7,0,17,0.01
2013-9-21,62,56,48,54,49,44,92,77,61,29.93,29.77,7,0,9,0.00
2013-9-22,66,53,45,50,46,43,93,78,51,30.06,29.93,0,0,0,0.00
2013-9-23,64,54,45,52,48,42,94,81,59,30.12,30.03,0,0,0,0.00
2013-9-24,68,58,49,55,50,46,93,79,55,30.05,29.93,0,0,0,0.00
2013-9-25,66,57,48,57,51,46,96,82,58,29.98,29.92,0,0,0,0.01
2013-9-26,74,59,48,61,52,47,96,79,43,30.08,29.96,0,0,0,0.01
2013-9-27,80,63,51,61,54,49,95,74,49,30.15,30.03,10,0,11,0.00
2013-9-28,83,69,57,65,58,52,90,70,48,30.05,29.84,20,1,20,0.13
2013-9-29,67,58,49,59,50,44,94,77,45,30.04,29.89,14,1,15,0.19
2013-9-30,76,59,45,55,50,43,95,75,44,29.99,29.83,11,0,11,0.00
2013-10-1,81,68,60,66,61,53,94,80,60,29.92,29.82,19,1,20,0.00
2013-10-2,76,64,53,62,52,43,94,70,36,30.08,29.92,10,0,10,0.00
2013-10-3,76,68,57,69,64,54,95,88,77,29.97,29.81,12,0,16,0.02
2013-10-4,70,66,63,66,63,61,95,90,83,29.95,29.85,12,1,14,0.16
2013-10-5,80,68,62,74,66,61,97,92,76,29.93,29.70,14,0,17,0.52
2013-10-6,64,54,44,62,47,40,95,78,55,29.76,29.65,13,0,13,0.19
2013-10-7,68,53,44,50,45,41,94,77,49,30.07,29.73,16,1,16,0.00
2013-10-8,78,59,44,56,49,42,96,73,41,30.17,30.07,10,0,11,0.00
2013-10-9,72,58,49,52,48,44,92,71,45,30.23,30.13,10,0,10,0.00
2013-10-10,76,58,46,59,51,44,96,79,46,30.16,30.04,9,0,9,0.01
2013-10-11,76,61,51,60,53,49,94,77,55,30.06,29.93,14,0,15,0.00
2013-10-12,70,61,53,63,54,44,93,78,65,30.15,29.92,11,0,12,0.14
2013-10-13,63,51,42,45,42,39,91,72,44,30.40,30.15,13,0,13,0.00
2013-10-14,59,49,39,47,43,37,94,80,60,30.41,30.13,14,1,15,0.00
2013-10-15,61,56,48,60,51,44,94,86,79,30.13,29.72,11,0,11,0.15
2013-10-16,53,50,46,48,46,42,92,86,82,29.91,29.79,10,0,11,0.00
2013-10-17,49,47,42,47,44,39,94,92,85,29.90,29.80,12,0,15,0.44
2013-10-18,48,44,39,43,40,37,93,85,75,29.95,29.81,14,0,14,0.00
2013-10-19,53,44,39,40,38,36,92,80,54,29.92,29.75,12,0,14,0.03
2013-10-20,54,46,36,47,41,34,94,82,61,29.87,29.71,9,0,10,0.01
2013-10-21,52,43,33,47,34,26,82,70,58,29.95,29.75,20,1,20,0.00
2013-10-22,44,36,29,31,28,24,87,73,57,29.99,29.91,10,0,11,0.00
2013-10-23,45,37,30,30,28,25,87,71,47,30.02,29.92,14,1,16,0.00
2013-10-24,40,36,32,30,27,25,80,70,55,30.30,30.01,16,1,17,0.00
2013-10-25,52,40,28,33,28,24,85,64,46,30.40,29.99,24,1,33,0.00
2013-10-26,52,45,37,38,32,29,75,59,49,30.06,29.81,22,2,24,0.00
2013-10-27,56,42,30,35,31,26,89,67,44,30.06,29.93,15,0,18,0.00
2013-10-28,48,42,36,41,36,30,90,79,69,30.39,30.04,16,2,16,0.00
2013-10-29,51,44,35,43,39,33,92,85,73,30.38,30.14,11,0,11,0.00
2013-10-30,58,51,41,56,48,39,95,91,82,30.14,29.72,9,0,9,0.35
2013-10-31,61,58,44,60,56,41,96,95,87,29.72,29.17,16,1,21,0.55
2013-11-1,47,44,42,43,41,38,93,87,82,29.72,29.32,17,1,17,0.06
2013-11-2,46,41,37,42,38,35,94,89,76,30.14,29.72,10,0,10,0.02
2013-11-3,52,42,32,41,37,29,94,82,60,30.29,30.14,10,0,10,0.00
2013-11-4,56,49,43,45,40,36,82,72,57,30.27,30.08,18,2,21,0.00
2013-11-5,57,52,50,50,47,44,92,83,74,30.24,29.91,23,1,23,0.02
2013-11-6,56,46,34,54,42,26,95,88,68,30.15,29.71,21,3,21,0.72
2013-11-7,42,35,29,33,29,25,92,79,62,30.23,30.15,13,0,16,0.00
2013-11-8,47,38,26,34,30,24,93,74,58,30.33,29.90,20,1,21,0.00
2013-11-9,55,48,40,42,37,27,78,66,54,30.07,29.80,28,4,28,0.00
2013-11-10,51,42,34,33,30,27,77,65,48,30.30,30.07,16,1,17,0.00
2013-11-11,45,35,22,36,28,17,92,78,65,30.52,30.05,15,1,16,0.11
2013-11-12,32,24,20,20,17,15,84,75,60,30.71,30.52,17,1,17,0.03
2013-11-13,40,30,19,22,18,14,87,62,43,30.59,30.13,23,4,24,0.01
2013-11-14,48,40,33,31,26,21,63,57,50,30.14,29.90,18,3,19,0.00
2013-11-15,53,43,37,36,32,27,83,64,49,29.96,29.90,14,1,14,0.00
2013-11-16,59,50,40,56,47,34,94,91,79,29.92,29.52,35,6,35,0.21
2013-11-17,67,54,40,62,51,35,95,88,79,29.66,29.08,27,6,36,0.84
2013-11-18,40,35,28,35,28,22,83,73,60,30.26,29.66,28,5,28,0.00
2013-11-19,39,31,24,31,26,20,91,80,64,30.38,30.26,10,0,11,0.00
2013-11-20,45,37,31,36,30,26,91,74,52,30.30,30.11,18,2,18,0.05
2013-11-21,47,43,38,42,39,36,92,88,80,30.21,30.11,4,0,5,0.00
2013-11-22,41,34,26,38,28,19,91,80,66,30.46,30.19,16,2,16,0.02
2013-11-23,26,20,13,19,9,3,76,63,53,30.73,30.42,20,3,25,0.00
2013-11-24,27,18,10,9,7,3,78,61,42,30.73,30.33,10,1,14,0.00
2013-11-25,31,27,22,26,20,9,88,75,53,30.34,30.07,0,0,0,0.00
2013-11-26,32,27,14,28,20,6,92,75,61,30.18,30.02,0,0,0,0.00
2013-11-27,26,18,10,14,10,4,80,69,58,30.28,30.17,0,0,0,0.00
2013-11-28,30,24,20,18,15,12,78,67,59,30.51,30.20,0,0,0,0.00
2013-11-29,36,26,14,24,18,10,88,74,54,30.66,30.40,0,0,0,0.00
2013-11-30,49,37,31,34,28,22,83,69,54,30.41,30.04,0,0,0,0.00
2013-12-1,40,33,27,32,28,24,92,82,70,30.12,29.99,0,0,0,0.00
2013-12-2,41,34,24,35,29,22,94,83,63,29.99,29.77,0,0,0,0.09
2013-12-3,42,39,35,41,38,33,100,94,92,29.77,29.67,0,0,0,0.04
2013-12-4,53,46,39,52,45,35,100,95,86,29.74,29.48,0,0,0,0.02
2013-12-5,39,26,18,35,19,10,87,75,64,30.28,29.63,0,0,0,0.00
2013-12-6,18,14,9,11,7,2,78,72,65,30.57,30.25,0,0,0,0.00
2013-12-7,18,10,4,6,2,-2,83,70,57,30.72,30.57,0,0,0,0.00
2013-12-8,25,19,10,24,15,3,93,84,68,30.65,29.95,0,0,0,0.00
2013-12-9,24,14,-2,23,9,-8,100,82,70,30.24,29.93,0,0,0,0.00
2013-12-10,21,9,-5,12,3,-10,92,74,61,30.32,30.01,0,0,0,0.00
2013-12-11,16,10,-1,13,4,-8,87,76,62,30.59,30.29,0,0,0,0.00
2013-12-12,19,8,-4,11,1,-9,79,72,62,30.57,30.23,0,0,0,0.00
2013-12-13,31,24,16,26,19,10,85,80,76,30.23,30.15,0,0,0,0.04
2013-12-14,30,26,20,28,24,18,93,92,81,30.15,29.94,0,0,0,0.00
2013-12-15,20,13,7,18,9,-1,91,82,68,30.16,29.92,0,0,0,0.00
2013-12-16,19,11,-1,16,5,-6,92,78,66,30.20,30.05,0,0,0,0.00
2013-12-17,33,24,14,26,19,11,91,83,69,30.08,29.93,0,0,0,0.08
2013-12-18,36,26,13,27,17,8,84,70,45,30.15,29.81,0,0,0,0.01
2013-12-19,34,32,27,32,29,24,94,86,78,29.95,29.81,0,0,0,0.10
2013-12-20,34,32,28,32,30,27,94,94,93,29.84,29.75,0,0,0,0.17
2013-12-21,33,29,27,32,28,25,95,94,94,29.88,29.63,0,0,0,0.00
2013-12-22,32,27,21,31,26,19,100,94,92,30.12,29.62,0,0,0,0.00
2013-12-23,22,11,-3,20,8,-7,92,87,82,30.45,30.12,0,0,0,0.00
2013-12-24,17,6,-3,12,2,-7,87,84,78,30.58,30.39,0,0,0,0.00
2013-12-25,24,21,15,22,18,12,92,89,84,30.39,30.09,0,0,0,0.00
2013-12-26,29,22,11,27,19,8,92,87,82,30.29,30.10,0,0,0,0.00
2013-12-27,40,32,19,32,27,17,93,84,73,30.29,30.03,0,0,0,0.18
2013-12-28,48,39,30,35,32,26,90,76,60,30.08,29.78,0,0,0,0.08
2013-12-29,40,25,4,32,19,-2,90,79,70,30.22,29.74,0,0,0,0.00
2013-12-30,8,2,-6,0,-5,-11,82,72,61,30.37,30.22,0,0,0,0.00
2013-12-31,10,5,-1,4,0,-6,85,81,72,30.39,30.23,0,0,0,0.00
2014-1-1,18,13,6,16,10,3,90,88,85,30.36,30.23,0,0,0,0.00
2014-1-2,16,10,-1,12,7,-5,92,86,82,30.45,30.19,0,0,0,0.00